createdAt,value
2022-09-23T00:03:02.423Z,0.93
2022-09-23T00:08:04.755Z,1.20
2022-09-23T00:13:06.448Z,0.95
2022-09-23T00:18:08.174Z,0.80
2022-09-23T00:23:09.696Z,0.85
2022-09-23T00:28:11.162Z,1.10
2022-09-23T00:33:12.639Z,0.82
2022-09-23T00:38:14.444Z,0.77
2022-09-23T00:43:15.988Z,0.65
2022-09-23T00:48:20.619Z,0.90
2022-09-23T00:53:23.898Z,0.90
2022-09-23T00:58:26.973Z,1.00
2022-09-23T01:03:29.163Z,0.90
2022-09-23T01:08:31.295Z,1.27
2022-09-23T01:13:48.075Z,0.80
2022-09-23T01:18:49.524Z,1.05
2022-09-23T01:24:09.677Z,0.88
2022-09-23T01:29:29.984Z,1.13
2022-09-23T01:34:55.545Z,0.93
2022-09-23T01:40:02.877Z,0.93
2022-09-23T01:45:12.749Z,1.02
2022-09-23T01:50:37.804Z,1.30
2022-09-23T01:55:44.784Z,1.02
2022-09-23T02:00:57.073Z,1.05
2022-09-23T02:06:01.607Z,1.40
2022-09-23T02:11:07.858Z,1.10
2022-09-23T02:16:14.151Z,1.15
2022-09-23T02:21:17.348Z,1.00
2022-09-23T02:26:21.770Z,1.23
2022-09-23T02:31:42.166Z,0.93
2022-09-23T02:36:50.160Z,1.48
2022-09-23T02:41:52.006Z,1.00
2022-09-23T02:46:53.531Z,1.08
2022-09-23T02:51:55.618Z,1.10
2022-09-23T02:56:57.662Z,0.98
2022-09-23T03:02:17.484Z,0.82
2022-09-23T03:07:37.754Z,1.20
2022-09-23T03:12:47.790Z,0.98
2022-09-23T03:17:55.027Z,0.95
2022-09-23T03:23:00.960Z,1.23
2022-09-23T03:28:03.395Z,1.00
2022-09-23T03:33:06.875Z,2.70
2022-09-23T03:38:17.445Z,1.52
2022-09-23T03:43:18.949Z,1.58
2022-09-23T03:48:22.266Z,1.38
2022-09-23T03:53:24.050Z,1.15
2022-09-23T03:58:25.516Z,1.30
2022-09-23T04:03:28.175Z,1.38
2022-09-23T04:08:29.695Z,1.23
2022-09-23T04:13:31.923Z,1.15
2022-09-23T04:18:33.408Z,1.27
2022-09-23T04:23:34.944Z,1.25
2022-09-23T04:28:36.403Z,2.28
2022-09-23T04:33:38.068Z,1.20
2022-09-23T04:38:39.518Z,1.10
2022-09-23T04:43:41.050Z,1.33
2022-09-23T04:48:42.702Z,1.27
2022-09-23T04:53:45.197Z,1.00
2022-09-23T04:58:47.042Z,1.25
2022-09-23T05:03:48.519Z,1.10
2022-09-23T05:08:51.479Z,1.20
2022-09-23T05:13:54.021Z,1.20
2022-09-23T05:18:55.494Z,0.80
2022-09-23T05:23:59.075Z,1.13
2022-09-23T05:29:00.927Z,1.50
2022-09-23T05:34:03.680Z,1.13
2022-09-23T05:39:05.864Z,1.50
2022-09-23T05:44:07.387Z,1.45
2022-09-23T05:49:09.476Z,1.50
2022-09-23T05:54:11.411Z,1.52
2022-09-23T05:59:12.892Z,1.40
2022-09-23T06:04:14.500Z,1.35
2022-09-23T06:09:16.027Z,1.42
2022-09-23T06:14:17.522Z,1.52
2022-09-23T06:19:18.970Z,2.28
2022-09-23T06:24:23.717Z,1.17
2022-09-23T06:29:27.584Z,1.30
2022-09-23T06:34:29.379Z,1.38
2022-09-23T06:39:31.482Z,1.30
2022-09-23T06:44:32.943Z,1.20
2022-09-23T06:49:34.406Z,1.30
2022-09-23T06:54:36.131Z,1.27
2022-09-23T06:59:37.603Z,1.60
2022-09-23T07:04:39.115Z,1.33
2022-09-23T07:09:40.655Z,1.50
2022-09-23T07:14:42.127Z,1.38
2022-09-23T07:19:44.154Z,1.15
2022-09-23T07:24:46.720Z,1.40
2022-09-23T07:29:49.108Z,1.08
2022-09-23T07:34:51.255Z,1.40
2022-09-23T07:39:52.750Z,1.70
2022-09-23T07:44:55.488Z,1.65
2022-09-23T07:49:57.027Z,1.30
2022-09-23T07:54:58.604Z,1.08
2022-09-23T08:00:01.261Z,1.52
2022-09-23T08:05:03.531Z,1.05
2022-09-23T08:10:05.623Z,1.60
2022-09-23T08:15:07.388Z,1.33
2022-09-23T08:20:29.151Z,1.05
2022-09-23T08:25:34.333Z,1.27
2022-09-23T08:30:36.251Z,1.17
2022-09-23T08:35:38.103Z,1.10
2022-09-23T08:40:41.537Z,1.40
2022-09-23T08:45:43.831Z,1.38
2022-09-23T08:50:47.502Z,1.20
2022-09-23T08:55:50.983Z,1.60
2022-09-23T09:01:11.038Z,1.58
2022-09-23T09:06:15.841Z,1.20
2022-09-23T09:11:19.311Z,1.00
2022-09-23T09:16:59.616Z,1.30
2022-09-23T09:22:02.564Z,1.40
2022-09-23T09:27:13.600Z,1.15
2022-09-23T09:32:38.330Z,1.27
2022-09-23T09:37:44.734Z,1.25
2022-09-23T09:42:47.544Z,1.05
2022-09-23T09:47:48.997Z,1.20
2022-09-23T09:52:55.627Z,1.00
2022-09-23T09:58:00.240Z,1.00
2022-09-23T10:03:03.618Z,1.05
2022-09-23T10:08:24.637Z,1.42
2022-09-23T10:13:26.586Z,0.80
2022-09-23T10:18:30.463Z,0.80
2022-09-23T10:23:33.429Z,0.70
2022-09-23T10:28:47.098Z,0.80
2022-09-23T10:33:50.062Z,0.80
2022-09-23T10:39:20.193Z,0.68
2022-09-23T10:44:55.386Z,0.77
2022-09-23T10:49:56.856Z,0.77
2022-09-23T10:54:58.308Z,0.98
2022-09-23T10:59:59.808Z,0.80
2022-09-23T11:05:04.879Z,0.70
2022-09-23T11:10:44.903Z,0.73
2022-09-23T11:15:46.677Z,0.68
2022-09-23T11:20:48.112Z,0.95
2022-09-23T11:26:08.104Z,0.57
2022-09-23T11:31:15.442Z,0.50
2022-09-23T11:36:30.384Z,0.60
2022-09-23T11:41:34.539Z,0.55
2022-09-23T11:46:35.988Z,0.50
2022-09-23T11:51:52.621Z,0.57
2022-09-23T11:56:57.061Z,0.60
2022-09-23T12:02:15.305Z,0.70
2022-09-23T12:07:22.559Z,0.60
2022-09-23T12:12:36.040Z,0.70
2022-09-23T12:17:37.498Z,0.50
2022-09-23T12:22:39.246Z,0.65
2022-09-23T12:27:45.659Z,0.52
2022-09-23T12:32:47.270Z,0.47
2022-09-23T12:37:49.164Z,0.75
2022-09-23T12:42:50.846Z,0.60
2022-09-23T12:47:52.295Z,0.60
2022-09-23T12:52:53.766Z,0.77
2022-09-23T12:57:55.233Z,1.00
2022-09-23T13:03:19.069Z,0.63
2022-09-23T13:08:23.737Z,0.70
2022-09-23T13:13:27.595Z,0.90
2022-09-23T13:18:48.159Z,0.63
2022-09-23T13:28:55.854Z,0.70
2022-09-23T13:34:02.033Z,0.70
2022-09-23T13:39:16.654Z,0.65
2022-09-23T13:44:20.190Z,0.68
2022-09-23T13:49:21.647Z,0.65
2022-09-23T13:54:30.323Z,0.77
2022-09-23T13:59:37.198Z,0.43
2022-09-23T14:04:39.163Z,0.68
2022-09-23T14:09:43.029Z,0.35
2022-09-23T14:14:44.535Z,0.55
2022-09-23T14:19:46.901Z,0.68
2022-09-23T14:24:48.590Z,0.70
2022-09-23T14:29:51.195Z,0.80
2022-09-23T14:35:03.740Z,0.73
2022-09-23T14:40:09.591Z,0.57
2022-09-23T14:45:21.864Z,1.15
2022-09-23T14:50:37.213Z,0.60
2022-09-23T14:55:38.719Z,0.63
2022-09-23T15:00:40.281Z,1.15
2022-09-23T15:05:46.405Z,0.50
2022-09-23T15:10:48.112Z,0.70
2022-09-23T15:15:52.141Z,0.47
2022-09-23T15:20:55.538Z,0.50
2022-09-23T15:25:57.002Z,0.70
2022-09-23T15:30:58.473Z,0.50
2022-09-23T15:35:59.937Z,0.60
2022-09-23T15:41:01.414Z,0.57
2022-09-23T15:46:07.489Z,0.60
2022-09-23T15:51:09.921Z,0.80
2022-09-23T15:56:11.384Z,0.73
2022-09-23T16:01:18.973Z,0.50
2022-09-23T16:06:20.519Z,0.60
2022-09-23T16:11:24.467Z,0.50
2022-09-23T16:16:27.824Z,0.60
2022-09-23T16:21:29.423Z,0.70
2022-09-23T16:26:32.700Z,0.75
2022-09-23T16:31:34.350Z,0.77
2022-09-23T16:36:39.320Z,0.80
2022-09-23T16:41:42.878Z,0.85
2022-09-23T16:46:44.367Z,1.10
2022-09-23T16:51:45.879Z,1.52
2022-09-23T16:56:47.345Z,1.20
2022-09-23T17:02:07.441Z,1.23
2022-09-23T17:07:09.022Z,1.23
2022-09-23T17:12:27.852Z,1.10
2022-09-23T17:17:29.475Z,1.10
2022-09-23T17:22:31.112Z,0.85
2022-09-23T17:27:32.593Z,1.15
2022-09-23T17:32:34.124Z,2.25
2022-09-23T17:37:36.275Z,1.23
2022-09-23T17:42:44.735Z,1.40
2022-09-23T17:47:51.269Z,1.17
2022-09-23T17:52:52.736Z,0.98
2022-09-23T17:57:54.233Z,1.17
2022-09-23T18:02:55.703Z,1.40
2022-09-23T18:07:57.196Z,1.20
2022-09-23T18:12:58.667Z,1.77
2022-09-23T18:18:00.121Z,1.98
2022-09-23T18:23:01.589Z,2.53
2022-09-23T18:28:03.090Z,2.20
2022-09-23T18:33:04.560Z,3.08
2022-09-23T18:38:06.353Z,3.10
2022-09-23T18:43:08.912Z,2.83
2022-09-23T18:48:28.797Z,3.00
2022-09-23T18:53:31.832Z,2.23
2022-09-23T18:58:33.307Z,2.45
2022-09-23T19:03:35.763Z,2.25
2022-09-23T19:08:37.769Z,2.88
2022-09-23T19:13:40.144Z,2.30
2022-09-23T19:18:42.212Z,3.03
2022-09-23T19:23:47.863Z,2.47
2022-09-23T19:28:51.336Z,2.20
2022-09-23T19:33:56.308Z,2.60
2022-09-23T19:38:59.387Z,2.72
2022-09-23T19:44:04.258Z,2.30
2022-09-23T19:49:06.639Z,2.10
2022-09-23T19:54:09.178Z,2.05
2022-09-23T19:59:12.428Z,1.98
2022-09-23T20:04:16.821Z,2.10
2022-09-23T20:09:18.461Z,1.92
2022-09-23T20:14:20.209Z,2.17
2022-09-23T20:19:21.835Z,1.70
2022-09-23T20:24:23.297Z,1.73
2022-09-23T20:29:24.836Z,2.17
2022-09-23T20:34:29.734Z,1.83
2022-09-23T20:39:31.516Z,2.10
2022-09-23T20:44:33.732Z,2.10
2022-09-23T20:49:36.481Z,2.10
2022-09-23T20:54:41.927Z,2.78
2022-09-23T20:59:44.305Z,1.80
2022-09-23T21:04:45.807Z,2.15
2022-09-23T21:09:47.320Z,2.10
2022-09-23T21:14:48.809Z,2.10
2022-09-23T21:19:50.267Z,2.17
2022-09-23T21:25:26.257Z,2.00
2022-09-23T21:30:13.459Z,1.73
2022-09-23T21:35:14.940Z,1.83
2022-09-23T21:40:34.895Z,2.30
2022-09-23T21:45:36.399Z,1.97
2022-09-23T21:50:40.896Z,1.98
2022-09-23T21:55:42.384Z,2.28
2022-09-23T22:00:44.118Z,2.22
2022-09-23T22:05:45.616Z,2.20
2022-09-23T22:10:47.123Z,2.05
2022-09-23T22:15:48.595Z,1.98
2022-09-23T22:20:50.343Z,2.05
2022-09-23T22:26:02.789Z,2.33
2022-09-23T22:31:23.199Z,2.15
2022-09-23T22:36:24.681Z,1.63
2022-09-23T22:41:26.412Z,1.55
2022-09-23T22:46:28.467Z,1.67
2022-09-23T22:51:29.943Z,1.83
2022-09-23T22:56:31.391Z,1.80
2022-09-23T23:01:33.583Z,2.00
2022-09-23T23:06:38.869Z,2.42
2022-09-23T23:11:42.249Z,1.90
2022-09-23T23:16:45.226Z,2.05
2022-09-23T23:21:46.774Z,2.45
2022-09-23T23:26:48.673Z,2.50
2022-09-23T23:31:50.389Z,2.22
2022-09-23T23:36:55.282Z,2.30
2022-09-23T23:41:57.792Z,2.10
2022-09-23T23:46:59.314Z,2.20
2022-09-23T23:52:00.942Z,2.03
2022-09-23T23:57:02.419Z,2.60
